< Typhoon 199612 1996 Season Typhoon 199614 >
Typhoon 199613 (NIKI)
General InformationTrack Information on Google MapsDetailed Wind InformationList of All Images || Disaster Info.ResourceGoogle EarthGE AnimationAtom FeedGeoJSON
Detalied Best Track (Time Zone = UTC)
Year Month Day Hour Lat. Long. Pressure (hPa) Wind (kt) Class Image Chart
1996 8 17 00 15.1 135.1 1006 0 2 Image Chart
1996 8 17 06 15.4 134.2 1006 0 2 Image Chart
1996 8 17 12 15.4 133.9 1006 0 2 Image Chart
1996 8 17 18 16.1 132.9 1006 0 2 Image Chart
1996 8 18 00 17.4 130.8 1006 0 2 Image Chart
1996 8 18 06 17.9 129.3 1004 35 3 Image Chart
1996 8 18 12 17.7 128.2 1004 35 3 Image Chart
1996 8 18 18 17.5 126.7 1000 35 3 Image Chart
1996 8 19 00 17.2 125.4 996 35 3 Image Chart
1996 8 19 06 17.4 124.4 990 45 3 Image Chart
1996 8 19 12 17.5 123.3 985 50 4 Image Chart
1996 8 19 18 17.6 121.5 985 50 4 Image Chart
1996 8 20 00 17.6 119.7 985 50 4 Image Chart
1996 8 20 06 17.3 118.2 985 50 4 Image Chart
1996 8 20 12 17.1 116.7 980 55 4 Image Chart
1996 8 20 18 17.2 115.5 980 55 4 Image Chart
1996 8 21 00 17.3 114.4 975 60 4 Image Chart
1996 8 21 06 17.5 112.7 970 65 5 Image Chart
1996 8 21 12 17.8 111.5 970 65 5 Image Chart
1996 8 21 18 18.2 110.2 970 65 5 Image Chart
1996 8 22 00 18.5 108.8 970 65 5 Image Chart
1996 8 22 06 18.9 107.9 970 65 5 Image Chart
1996 8 22 12 19.3 106.9 975 60 4 Image Chart
1996 8 22 18 19.9 105.5 980 55 4 Image Chart
1996 8 23 00 19.9 103.9 990 45 3 Image Chart
1996 8 23 06 20.3 102.4 998 0 2 Image Chart
1996 8 23 12 20.8 100.8 1000 0 2 Image Chart
Japan Meteorological Agency Best Track Data | Correction Date : 1997-01-07
< Typhoon 199612 1996 Season Typhoon 199614 >

Help